Time;durP1;ratioP1;P1;durP2;ratioP2;P2;SDS_P1;SDS_P2;PMS_P1;PMS_P2;Temp;Humidity;BMP_temperature;BMP_pressure;BME280_temperature;BME280_humidity;BME280_pressure;Samples;Min_cycle;Max_cycle;Signal;HPM_P1;HPM_P2
2023/01/19 01:59:50;;;;;;;17.00;9.80;;;;;;;-1.00;84.39;99593.22;4983661;28;20140;-81
2023/01/19 02:24:29;;;;;;;19.70;12.98;;;;;;;-1.04;85.52;99583.00;4986227;28;20038;-80
2023/01/19 02:57:49;;;;;;;26.50;12.95;;;;;;;-1.06;85.54;99573.59;4981957;28;20844;-81
2023/01/19 04:03:27;;;;;;;24.38;14.98;;;;;;;-1.63;85.42;99607.81;4992444;28;20045;-82
2023/01/19 04:15:11;;;;;;;22.00;13.93;;;;;;;-1.66;85.91;99600.19;4986739;28;20045;-84
2023/01/19 04:17:40;;;;;;;22.65;14.18;;;;;;;-1.67;85.88;99604.47;4978727;28;20069;-81
2023/01/19 04:20:09;;;;;;;24.02;14.68;;;;;;;-1.66;85.82;99603.63;4982650;28;20443;-82
2023/01/19 04:26:56;;;;;;;18.17;13.38;;;;;;;-1.68;85.43;99599.38;4985689;28;20096;-82
2023/01/19 04:29:24;;;;;;;23.30;14.65;;;;;;;-1.67;85.63;99606.22;4982060;28;20060;-80
2023/01/19 04:31:52;;;;;;;21.55;14.05;;;;;;;-1.66;85.48;99608.78;5003020;28;20117;-81
2023/01/19 04:34:21;;;;;;;23.40;15.15;;;;;;;-1.77;85.54;99605.59;4962717;28;20106;-82
2023/01/19 04:36:50;;;;;;;21.13;15.10;;;;;;;-1.83;85.81;99611.78;5005641;28;20066;-81
2023/01/19 04:39:19;;;;;;;28.27;15.15;;;;;;;-1.83;85.38;99616.94;4991287;28;20077;-80
2023/01/19 04:41:47;;;;;;;23.40;14.25;;;;;;;-1.88;85.79;99617.94;4985665;28;20884;-80
2023/01/19 04:44:15;;;;;;;18.35;12.20;;;;;;;-1.92;85.92;99616.31;4997836;28;20137;-81
2023/01/19 04:46:44;;;;;;;21.10;15.70;;;;;;;-1.90;86.19;99607.63;5004405;28;20069;-82
2023/01/19 04:49:12;;;;;;;24.30;14.45;;;;;;;-1.91;85.80;99611.09;4966518;28;20051;-82
2023/01/19 04:51:40;;;;;;;21.48;14.23;;;;;;;-1.92;85.39;99606.84;4964458;28;20039;-83
2023/01/19 04:54:09;;;;;;;23.05;14.77;;;;;;;-1.94;85.38;99607.75;4983368;28;20043;-84
2023/01/19 04:56:38;;;;;;;20.27;13.68;;;;;;;-1.99;85.57;99607.00;4987041;28;20253;-81
2023/01/19 04:59:07;;;;;;;19.60;12.68;;;;;;;-2.00;85.54;99606.16;4979231;28;20066;-82
2023/01/19 06:59:26;;;;;;;24.85;13.85;;;;;;;-2.69;87.42;99671.28;4982500;28;20066;-84
2023/01/19 07:01:57;;;;;;;21.20;13.88;;;;;;;-2.75;87.23;99664.50;4958501;28;20093;-84
2023/01/19 07:04:25;;;;;;;21.73;13.80;;;;;;;-2.76;87.16;99670.56;4971064;28;20125;-84
2023/01/19 07:06:54;;;;;;;20.23;13.80;;;;;;;-2.76;86.84;99674.88;4985095;28;20046;-82
2023/01/19 07:09:24;;;;;;;21.45;13.20;;;;;;;-2.76;86.81;99683.44;4972495;28;20043;-79
2023/01/19 07:11:53;;;;;;;18.77;14.20;;;;;;;-2.75;87.02;99685.13;4989035;28;20030;-85
2023/01/19 07:14:21;;;;;;;19.10;13.15;;;;;;;-2.74;87.02;99678.28;4980333;28;20057;-80
2023/01/19 07:16:49;;;;;;;21.13;15.15;;;;;;;-2.69;87.24;99694.47;4980129;28;20047;-79
2023/01/19 07:19:17;;;;;;;20.45;13.48;;;;;;;-2.68;87.15;99684.13;4985740;28;20105;-81
2023/01/19 07:21:45;;;;;;;21.00;13.63;;;;;;;-2.73;86.85;99693.69;4971374;28;20117;-83
2023/01/19 07:24:13;;;;;;;18.55;12.75;;;;;;;-2.73;87.11;99695.41;4970546;28;20039;-82
2023/01/19 07:26:41;;;;;;;19.38;12.90;;;;;;;-2.70;87.03;99700.50;4961261;28;20598;-81
2023/01/19 07:29:13;;;;;;;24.05;12.93;;;;;;;-2.69;87.10;99700.47;4959729;28;20507;-80
2023/01/19 07:31:48;;;;;;;24.88;14.07;;;;;;;-2.72;87.00;99703.09;4984026;28;20082;-86
2023/01/19 07:34:25;;;;;;;22.40;14.10;;;;;;;-2.71;86.92;99701.38;4966556;28;20042;-82
2023/01/19 07:36:55;;;;;;;22.88;14.38;;;;;;;-2.74;86.96;99697.16;4978232;28;20042;-83
2023/01/19 07:39:35;;;;;;;21.67;14.00;;;;;;;-2.69;86.94;99709.94;4966947;28;20032;-84
2023/01/19 07:42:03;;;;;;;18.38;12.10;;;;;;;-2.73;86.78;99708.31;4992865;28;20058;-85
2023/01/19 07:44:33;;;;;;;21.10;13.43;;;;;;;-2.74;86.87;99714.34;4973684;28;20055;-85
2023/01/19 07:47:02;;;;;;;20.23;12.35;;;;;;;-2.78;86.16;99704.97;4991444;28;20062;-86
2023/01/19 07:49:30;;;;;;;21.88;13.63;;;;;;;-2.78;86.74;99712.69;4974307;28;20050;-84
2023/01/19 07:51:58;;;;;;;21.30;13.07;;;;;;;-2.71;86.63;99707.38;4972076;28;20067;-82
2023/01/19 07:54:25;;;;;;;24.50;13.10;;;;;;;-2.66;86.67;99707.28;4997413;28;20064;-84
2023/01/19 07:56:53;;;;;;;17.15;12.40;;;;;;;-2.67;86.35;99706.44;4964246;28;20046;-81
2023/01/19 07:59:21;;;;;;;16.67;11.50;;;;;;;-2.72;86.83;99717.72;4986394;28;20524;-82
2023/01/19 08:01:50;;;;;;;20.20;12.57;;;;;;;-2.66;86.57;99715.00;4991613;28;20050;-86
2023/01/19 08:04:19;;;;;;;19.50;12.05;;;;;;;-2.66;86.18;99728.75;4962026;28;20046;-83
2023/01/19 08:06:48;;;;;;;24.00;13.13;;;;;;;-2.65;86.11;99722.72;4995429;28;20137;-84
2023/01/19 08:09:15;;;;;;;22.83;12.90;;;;;;;-2.63;86.21;99723.53;4977330;28;20575;-81
2023/01/19 08:11:44;;;;;;;17.85;11.35;;;;;;;-2.58;85.78;99734.59;4981228;28;20050;-83
2023/01/19 08:14:11;;;;;;;18.95;13.23;;;;;;;-2.56;85.82;99717.41;4994130;28;20519;-82
2023/01/19 08:16:39;;;;;;;19.55;12.50;;;;;;;-2.51;nan;99730.19;4961493;28;20165;-82
2023/01/19 08:19:07;;;;;;;20.00;12.45;;;;;;;-2.44;85.54;99726.59;4975877;28;20114;-81
2023/01/19 08:21:37;;;;;;;21.10;13.48;;;;;;;-2.43;85.46;99724.84;4979457;28;20070;-83
2023/01/19 08:24:05;;;;;;;19.92;12.15;;;;;;;-2.41;84.72;99743.72;4953460;28;20141;-82
2023/01/19 08:26:34;;;;;;;17.25;11.65;;;;;;;-2.37;84.73;99738.47;4963993;28;20047;-82
2023/01/19 08:29:04;;;;;;;20.20;12.82;;;;;;;-2.35;84.85;99738.44;4939405;28;20057;-83
2023/01/19 08:31:32;;;;;;;21.35;11.55;;;;;;;-2.34;84.78;99735.00;4988409;28;20061;-83
2023/01/19 08:34:01;;;;;;;17.15;11.48;;;;;;;-2.33;84.55;99734.97;4978154;28;20038;-84
2023/01/19 08:36:29;;;;;;;19.05;11.65;;;;;;;-2.30;84.57;99741.75;4997500;28;20231;-85
2023/01/19 08:38:57;;;;;;;22.80;12.02;;;;;;;-2.31;83.90;99745.22;4977898;28;20028;-84
2023/01/19 08:41:25;;;;;;;19.45;11.57;;;;;;;-2.28;84.15;99747.75;4994596;28;20069;-84
2023/01/19 08:43:53;;;;;;;18.38;12.00;;;;;;;-2.31;83.73;99737.50;4969347;28;20034;-83
2023/01/19 08:46:25;;;;;;;16.52;11.18;;;;;;;-2.34;83.67;99732.44;5003540;28;20124;-82
2023/01/19 08:48:53;;;;;;;15.38;11.23;;;;;;;-2.35;83.79;99739.28;4957259;28;20090;-82
2023/01/19 08:51:21;;;;;;;21.17;11.38;;;;;;;-2.31;83.99;99753.81;4971733;28;20074;-82
2023/01/19 08:53:51;;;;;;;18.75;10.45;;;;;;;-2.23;84.19;99748.50;4960708;28;20061;-81
2023/01/19 08:56:20;;;;;;;18.17;11.25;;;;;;;-2.25;83.98;99747.69;4984447;28;20066;-83
2023/01/19 08:58:48;;;;;;;19.02;11.55;;;;;;;-2.19;84.18;99745.00;4969500;28;20094;-82
2023/01/19 09:01:38;;;;;;;18.33;10.82;;;;;;;-2.06;83.86;99746.44;4956544;28;20046;-82
2023/01/19 09:04:07;;;;;;;19.38;10.77;;;;;;;-2.04;83.88;99746.38;4978602;28;20037;-81
2023/01/19 09:06:35;;;;;;;19.55;10.85;;;;;;;-2.03;83.00;99763.53;4965405;28;20097;-83
2023/01/19 09:09:04;;;;;;;16.13;9.30;;;;;;;-2.02;82.76;99759.25;4961495;28;20138;-81
2023/01/19 09:11:33;;;;;;;14.68;9.65;;;;;;;-1.94;83.34;99755.59;4973435;28;20085;-80
2023/01/19 09:14:04;;;;;;;14.20;9.52;;;;;;;-1.86;83.45;99755.44;4959684;28;20063;-80
2023/01/19 09:16:33;;;;;;;15.10;9.43;;;;;;;-1.76;83.39;99766.41;4974028;28;20034;-82
2023/01/19 09:19:01;;;;;;;15.77;9.05;;;;;;;-1.81;82.74;99761.34;4993369;28;20055;-81
2023/01/19 09:21:30;;;;;;;15.02;9.70;;;;;;;-1.76;82.87;99759.50;4977903;28;20085;-84
2023/01/19 09:23:58;;;;;;;14.32;8.48;;;;;;;-1.70;82.07;99767.13;4981140;28;20074;-81
2023/01/19 09:26:26;;;;;;;16.30;9.60;;;;;;;-1.70;82.27;99771.44;4974956;28;20667;-82
2023/01/19 09:28:56;;;;;;;18.70;10.00;;;;;;;-1.65;81.80;99770.44;4964652;28;20142;-82
2023/01/19 09:31:24;;;;;;;18.20;9.65;;;;;;;-1.63;81.34;99771.25;4989564;28;20129;-83
2023/01/19 09:33:53;;;;;;;14.65;9.23;;;;;;;-1.54;81.84;99770.19;4961077;28;20052;-83
2023/01/19 09:36:21;;;;;;;15.75;8.85;;;;;;;-1.48;81.83;99767.50;4980551;28;20356;-84
2023/01/19 09:38:50;;;;;;;15.85;8.95;;;;;;;-1.39;82.31;99771.59;4988049;28;20043;-82
2023/01/19 09:41:21;;;;;;;18.02;10.40;;;;;;;-1.35;81.74;99766.31;4975874;28;20145;-82
2023/01/19 09:43:55;;;;;;;17.80;9.50;;;;;;;-1.31;81.96;99777.41;4946422;28;20082;-83
2023/01/19 09:46:39;;;;;;;16.58;8.60;;;;;;;-1.23;81.92;99767.72;4979496;28;20061;-82
2023/01/19 09:49:27;;;;;;;20.20;10.40;;;;;;;-1.14;81.44;99766.66;4951296;28;20109;-81
2023/01/19 09:51:56;;;;;;;15.45;9.32;;;;;;;-1.16;80.95;99763.28;4969129;28;20113;-83
2023/01/19 09:55:00;;;;;;;12.57;8.70;;;;;;;-1.03;81.46;99762.94;4962797;28;20154;-82
2023/01/19 09:57:35;;;;;;;16.63;9.18;;;;;;;-0.95;81.57;99757.53;4960779;28;20146;-84
2023/01/19 10:00:13;;;;;;;17.07;9.70;;;;;;;-0.91;81.00;99763.50;4951314;28;20097;-84
2023/01/19 10:02:46;;;;;;;13.50;8.93;;;;;;;-0.81;81.44;99752.91;4979603;28;20066;-82
2023/01/19 10:05:43;;;;;;;13.48;8.85;;;;;;;-0.77;80.92;99749.34;4969045;28;20065;-83
2023/01/19 10:08:55;;;;;;;15.20;8.40;;;;;;;-0.63;81.03;99756.72;4970037;28;20073;-82
2023/01/19 10:11:42;;;;;;;17.23;9.45;;;;;;;-0.55;80.74;99759.91;4957403;28;20070;-83
2023/01/19 10:14:39;;;;;;;14.68;9.75;;;;;;;-0.45;80.47;99755.38;4961436;28;20085;-83
2023/01/19 10:17:50;;;;;;;11.63;8.35;;;;;;;-0.34;80.09;99755.91;4966340;28;20082;-83
2023/01/19 10:20:32;;;;;;;16.23;9.68;;;;;;;-0.28;80.30;99754.88;4990692;28;20050;-84
2023/01/19 10:23:01;;;;;;;17.48;10.07;;;;;;;-0.16;80.37;99749.34;4985322;28;20092;-83
2023/01/19 10:25:32;;;;;;;16.85;9.25;;;;;;;-0.11;80.14;99752.66;4983675;28;20058;-82
2023/01/19 10:28:03;;;;;;;17.13;8.68;;;;;;;-0.11;79.84;99742.31;4949182;28;20417;-83
2023/01/19 10:30:31;;;;;;;14.02;8.77;;;;;;;-0.02;79.89;99741.19;4986855;28;20054;-83
2023/01/19 10:33:01;;;;;;;11.65;8.30;;;;;;;0.08;79.10;99739.16;4999908;28;20080;-83
2023/01/19 10:35:30;;;;;;;16.45;8.70;;;;;;;0.07;78.27;99745.25;4955803;28;20077;-83
2023/01/19 10:38:00;;;;;;;13.50;9.50;;;;;;;0.05;79.06;99747.88;4965254;28;20156;-82
2023/01/19 10:40:57;;;;;;;11.65;8.60;;;;;;;0.09;78.45;99746.03;4966218;28;20138;-83
2023/01/19 10:43:34;;;;;;;;;;;;;;;0.10;78.40;99748.59;4987854;28;20464;-83
2023/01/19 10:46:16;;;;;;;13.40;8.45;;;;;;;0.19;78.85;99737.13;4984392;28;20470;-80
2023/01/19 10:48:47;;;;;;;13.77;8.63;;;;;;;0.32;78.32;99728.06;4970825;28;20058;-82
2023/01/19 10:51:17;;;;;;;13.80;8.55;;;;;;;0.28;77.39;99731.66;4990125;28;20038;-82
2023/01/19 10:54:06;;;;;;;13.23;8.27;;;;;;;0.32;77.86;99735.84;4982319;28;20069;-81
2023/01/19 10:56:35;;;;;;;14.15;8.23;;;;;;;0.35;78.05;99737.47;4979615;28;20186;-82
2023/01/19 10:59:05;;;;;;;15.43;8.10;;;;;;;0.40;77.93;99749.38;4984582;28;20115;-81
2023/01/19 11:01:37;;;;;;;16.23;8.00;;;;;;;0.52;78.21;99742.13;4974841;28;20118;-81
2023/01/19 11:04:25;;;;;;;13.55;7.90;;;;;;;0.61;77.72;99736.66;4984073;28;20128;-84
2023/01/19 11:07:28;;;;;;;11.68;8.40;;;;;;;0.69;77.39;99734.66;5018042;28;20042;-82
2023/01/19 11:10:21;;;;;;;14.02;8.85;;;;;;;0.73;76.25;99731.91;4996690;28;20129;-83
2023/01/19 11:13:20;;;;;;;13.07;7.57;;;;;;;0.82;77.28;99730.78;4983785;28;20050;-81
2023/01/19 11:15:50;;;;;;;16.33;9.02;;;;;;;0.99;77.08;99732.78;4989070;28;20659;-81
2023/01/19 11:18:33;;;;;;;13.52;8.35;;;;;;;1.13;76.54;99716.78;4964294;28;20114;-80
2023/01/19 11:21:16;;;;;;;14.68;9.23;;;;;;;1.30;75.75;99723.94;4971087;28;20057;-81
2023/01/19 11:24:08;;;;;;;14.43;7.78;;;;;;;1.44;74.54;99714.78;4991870;28;20046;-85
2023/01/19 11:26:56;;;;;;;15.35;8.82;;;;;;;1.65;74.51;99713.13;4955907;28;20041;-85
2023/01/19 11:29:32;;;;;;;13.40;7.88;;;;;;;1.86;74.88;99719.28;4996239;28;20050;-85
2023/01/19 11:32:29;;;;;;;15.55;7.97;;;;;;;2.02;73.69;99707.41;4997846;28;20078;-86
2023/01/19 11:35:52;;;;;;;17.05;8.15;;;;;;;2.33;72.27;99715.75;4977821;28;20070;-83
2023/01/19 11:38:54;;;;;;;12.43;7.90;;;;;;;2.57;71.47;99706.13;4948505;28;20101;-83
2023/01/19 11:41:33;;;;;;;13.27;7.93;;;;;;;2.68;71.90;99703.94;4967759;28;20102;-83
2023/01/19 11:44:33;;;;;;;14.38;9.20;;;;;;;2.91;70.68;99692.56;4949588;28;20046;-83
2023/01/19 11:47:05;;;;;;;12.70;7.85;;;;;;;3.19;69.98;99693.06;4977569;28;20149;-84
2023/01/19 11:49:50;;;;;;;13.15;7.78;;;;;;;3.41;69.74;99700.78;4967163;28;20043;-81
2023/01/19 11:52:42;;;;;;;12.32;8.07;;;;;;;3.60;68.07;99708.59;4959595;28;20438;-82
2023/01/19 11:55:40;;;;;;;;;;;;;;;;;;;;;
2023/01/19 11:58:24;;;;;;;13.48;8.05;;;;;;;3.95;67.43;99696.59;4980065;28;20129;-84
2023/01/19 12:01:23;;;;;;;13.35;8.38;;;;;;;4.17;67.16;99703.41;4981262;28;20045;-83
2023/01/19 12:04:20;;;;;;;13.10;8.07;;;;;;;4.28;66.79;99698.53;4958785;28;20050;-83
2023/01/19 12:06:54;;;;;;;13.77;8.05;;;;;;;4.30;64.24;99704.50;4942232;28;20083;-86
2023/01/19 12:09:30;;;;;;;13.32;8.23;;;;;;;4.64;65.37;99703.72;4961060;28;20097;-84
2023/01/19 12:12:15;;;;;;;13.65;8.27;;;;;;;5.30;64.22;99695.16;4945634;28;20050;-83
2023/01/19 12:14:52;;;;;;;14.05;8.50;;;;;;;5.85;61.64;99700.06;4964190;28;20134;-83
2023/01/19 12:17:34;;;;;;;14.82;7.22;;;;;;;6.43;61.93;99698.63;4950617;28;20047;-84
2023/01/19 12:20:13;;;;;;;12.85;7.60;;;;;;;7.31;60.32;99697.84;4962122;28;20035;-83
2023/01/19 12:22:51;;;;;;;12.38;8.30;;;;;;;7.64;57.95;99691.47;4992921;28;20030;-83
2023/01/19 12:25:38;;;;;;;10.80;7.25;;;;;;;7.65;58.06;99690.53;4948395;28;20038;-84
2023/01/19 12:28:11;;;;;;;10.45;7.40;;;;;;;7.47;57.75;99690.72;4953325;28;20047;-84
2023/01/19 12:30:43;;;;;;;12.38;6.90;;;;;;;7.22;57.65;99690.56;4945236;28;20047;-84
2023/01/19 12:33:40;;;;;;;13.80;8.43;;;;;;;7.00;57.21;99704.91;4949691;28;20047;-84
2023/01/19 12:36:40;;;;;;;10.52;7.15;;;;;;;6.87;58.19;99701.31;4979471;28;20055;-83
2023/01/19 12:39:11;;;;;;;14.95;7.97;;;;;;;6.76;59.41;99714.19;4957946;28;20046;-83
2023/01/19 12:41:40;;;;;;;11.45;8.00;;;;;;;6.79;60.38;99709.59;4981504;28;20030;-81
2023/01/19 12:44:11;;;;;;;11.30;8.20;;;;;;;6.73;58.13;99709.13;4963972;28;20597;-82
2023/01/19 12:47:18;;;;;;;13.23;8.02;;;;;;;6.78;57.98;99715.78;4964445;28;20731;-81
2023/01/19 12:50:06;;;;;;;15.38;7.60;;;;;;;6.90;58.67;99702.94;4970089;28;20058;-84
2023/01/19 12:52:55;;;;;;;12.02;8.07;;;;;;;7.12;58.65;99703.34;4953435;28;20043;-85
2023/01/19 12:55:52;;;;;;;12.60;7.82;;;;;;;7.34;55.88;99711.59;4973344;28;20118;-86
2023/01/19 12:59:17;;;;;;;17.83;10.02;;;;;;;7.95;56.73;99714.00;4981180;28;20047;-83
2023/01/19 13:02:53;;;;;;;13.35;7.85;;;;;;;8.75;54.73;99720.25;4957782;28;20061;-85
2023/01/19 13:05:31;;;;;;;12.57;8.18;;;;;;;9.21;53.44;99711.94;4969960;28;20379;-85
2023/01/19 13:08:14;;;;;;;12.32;6.68;;;;;;;9.59;51.61;99719.81;4955101;28;21668;-64
2023/01/19 13:11:04;;;;;;;13.18;7.38;;;;;;;9.50;52.38;99717.81;4955634;28;20399;-62
2023/01/19 13:13:41;;;;;;;13.95;7.47;;;;;;;9.84;51.34;99721.56;4948633;28;20150;-63
2023/01/19 13:16:17;;;;;;;12.50;7.93;;;;;;;9.25;52.22;99716.88;4966100;28;20406;-61
2023/01/19 13:18:54;;;;;;;12.32;8.15;;;;;;;9.00;53.34;99730.81;4974981;28;20069;-62
2023/01/19 13:21:28;;;;;;;10.15;6.70;;;;;;;8.62;53.28;99735.97;4956700;28;20518;-62
2023/01/19 13:23:57;;;;;;;11.32;7.68;;;;;;;8.29;54.96;99731.91;4966563;28;20117;-63
2023/01/19 13:26:31;;;;;;;10.90;7.50;;;;;;;8.21;54.92;99733.34;4946676;28;20053;-59
2023/01/19 13:29:06;;;;;;;12.20;7.93;;;;;;;8.18;55.45;99734.38;4968377;28;20059;-60
2023/01/19 13:31:35;;;;;;;13.00;7.55;;;;;;;8.08;55.57;99736.72;4976897;28;20468;-62
2023/01/19 13:34:03;;;;;;;12.50;8.27;;;;;;;8.02;55.85;99734.50;4969880;28;20149;-61
2023/01/19 13:36:34;;;;;;;12.80;8.35;;;;;;;7.75;56.79;99737.06;4983927;28;20074;-61
2023/01/19 13:39:05;;;;;;;13.43;8.65;;;;;;;7.42;57.38;99742.53;4967417;28;20111;-62
2023/01/19 13:41:36;;;;;;;18.05;8.95;;;;;;;7.34;56.21;99739.56;4951790;28;20170;-63
2023/01/19 13:44:07;;;;;;;11.38;7.70;;;;;;;7.20;59.49;99737.75;4971239;28;20571;-61
2023/01/19 13:46:37;;;;;;;9.65;7.88;;;;;;;7.09;58.95;99746.22;4972186;28;20086;-61
2023/01/19 13:49:18;;;;;;;12.15;8.57;;;;;;;6.93;57.77;99752.44;4950558;28;20427;-59
2023/01/19 13:52:16;;;;;;;13.60;8.40;;;;;;;6.90;58.53;99750.03;4972591;28;20051;-59
2023/01/19 13:54:49;;;;;;;12.80;8.82;;;;;;;6.84;58.90;99753.81;4973631;28;20129;-61
2023/01/19 13:57:46;;;;;;;13.63;8.50;;;;;;;6.62;59.79;99748.13;4969527;28;20074;-60
2023/01/19 14:00:20;;;;;;;17.00;9.25;;;;;;;6.49;60.74;99756.66;4939853;28;20423;-62
2023/01/19 14:03:10;;;;;;;15.13;9.02;;;;;;;6.37;61.51;99759.97;4947212;28;20476;-63
2023/01/19 14:05:39;;;;;;;14.00;9.18;;;;;;;6.14;61.17;99763.00;4965124;28;20073;-63
2023/01/19 14:08:12;;;;;;;15.18;8.75;;;;;;;6.08;61.54;99762.41;4969368;28;20451;-63
2023/01/19 14:10:43;;;;;;;13.07;8.68;;;;;;;5.93;60.98;99758.00;4971417;28;20064;-63
2023/01/19 14:13:15;;;;;;;14.60;9.70;;;;;;;5.81;60.93;99758.63;4970003;28;20057;-61
2023/01/19 14:15:42;;;;;;;12.77;9.25;;;;;;;5.69;61.63;99767.09;4952656;28;20078;-61
2023/01/19 14:18:13;;;;;;;16.13;9.10;;;;;;;5.46;62.43;99781.34;4960223;28;20138;-61
2023/01/19 14:20:40;;;;;;;11.70;8.45;;;;;;;5.30;62.19;99776.06;4970889;28;20043;-59
2023/01/19 14:23:34;;;;;;;13.90;8.88;;;;;;;5.02;61.02;99784.44;4959114;28;20556;-62
2023/01/19 14:26:02;;;;;;;15.70;9.52;;;;;;;4.90;63.21;99780.66;4970764;28;20050;-63
2023/01/19 14:28:38;;;;;;;13.95;10.05;;;;;;;4.63;64.29;99784.59;4952239;28;20161;-63
2023/01/19 14:31:23;;;;;;;16.38;10.30;;;;;;;4.59;63.66;99786.50;4966738;28;20138;-62
2023/01/19 14:33:54;;;;;;;16.88;9.75;;;;;;;4.64;64.64;99783.66;4978710;28;20054;-62
2023/01/19 14:36:25;;;;;;;13.55;9.10;;;;;;;4.64;65.87;99794.97;4957294;28;20467;-60
2023/01/19 14:39:43;;;;;;;13.43;9.57;;;;;;;4.63;65.05;99792.41;4971880;28;20051;-60
2023/01/19 15:00:17;;;;;;;15.95;10.60;;;;;;;3.14;68.94;99804.25;4961505;28;20041;-61
2023/01/19 15:02:46;;;;;;;16.75;11.05;;;;;;;3.02;69.72;99797.81;4971361;28;20049;-61
2023/01/19 15:05:39;;;;;;;19.90;10.85;;;;;;;2.90;69.75;99794.88;4968053;28;20399;-61
2023/01/19 15:08:06;;;;;;;21.40;11.23;;;;;;;2.78;70.68;99796.19;4952466;28;20052;-63
2023/01/19 16:56:31;;;;;;;19.10;13.07;;;;;;;1.01;79.43;99845.03;4970234;28;20574;-60
2023/01/19 16:58:59;;;;;;;19.98;13.85;;;;;;;1.00;79.63;99844.19;4977056;28;20050;-61
2023/01/19 17:10:42;;;;;;;19.35;12.52;;;;;;;1.15;78.88;99848.00;4965481;28;20034;-63
2023/01/19 17:13:09;;;;;;;17.50;12.35;;;;;;;1.20;78.65;99845.25;4967724;28;20608;-62
2023/01/19 17:15:36;;;;;;;21.85;13.35;;;;;;;1.13;79.10;99841.19;4970766;28;20082;-62
2023/01/19 17:18:04;;;;;;;24.15;14.05;;;;;;;1.16;79.12;99849.69;4981275;28;20101;-59
2023/01/19 17:24:45;;;;;;;17.95;12.07;;;;;;;1.10;79.04;99849.06;4980128;28;20045;-60
2023/01/19 18:18:55;;;;;;;23.40;14.07;;;;;;;1.30;79.98;99880.34;4976711;28;20061;-61
2023/01/19 18:21:26;;;;;;;26.17;15.05;;;;;;;1.36;80.10;99887.09;4977109;28;20061;-61
2023/01/19 18:24:01;;;;;;;22.17;13.52;;;;;;;1.42;79.67;99884.31;4965051;28;20054;-62
2023/01/19 18:26:29;;;;;;;20.23;13.30;;;;;;;1.32;79.75;99888.94;4971438;28;20073;-59
2023/01/19 18:28:57;;;;;;;28.10;14.25;;;;;;;1.24;80.20;99886.59;4976798;28;20070;-59
2023/01/19 18:31:25;;;;;;;25.73;14.35;;;;;;;1.27;80.54;99888.25;4968411;28;20109;-59
2023/01/19 18:33:53;;;;;;;21.40;13.38;;;;;;;1.26;80.35;99890.00;4967969;28;20043;-62
2023/01/19 18:36:20;;;;;;;25.08;14.32;;;;;;;1.28;80.32;99895.13;4970944;28;20069;-63
2023/01/19 18:38:48;;;;;;;23.92;14.98;;;;;;;1.22;80.04;99892.75;4973253;28;20085;-62
2023/01/19 18:41:17;;;;;;;21.17;14.25;;;;;;;1.19;80.35;99895.44;4971569;28;20118;-60
2023/01/19 18:43:45;;;;;;;19.55;12.82;;;;;;;1.23;80.62;99891.84;4984685;28;20046;-61
2023/01/19 18:46:14;;;;;;;21.65;14.15;;;;;;;1.26;80.47;99892.59;4985933;28;20141;-60
2023/01/19 18:48:41;;;;;;;26.27;15.55;;;;;;;1.32;80.02;99896.72;4979526;28;20054;-60
2023/01/19 18:51:10;;;;;;;23.55;14.48;;;;;;;1.29;80.01;99901.16;4975069;28;20101;-62
2023/01/19 18:54:27;;;;;;;24.00;13.65;;;;;;;1.31;80.48;99899.38;4972792;28;20142;-63
2023/01/19 18:56:54;;;;;;;24.02;14.32;;;;;;;1.35;79.89;99904.41;4970728;28;20130;-59
2023/01/19 18:59:24;;;;;;;22.73;14.45;;;;;;;1.37;79.93;99915.56;4961325;28;20133;-63
2023/01/19 19:02:57;;;;;;;24.80;14.65;;;;;;;1.39;80.20;99911.16;4964300;28;20587;-63
2023/01/19 19:05:24;;;;;;;21.23;13.80;;;;;;;1.38;80.36;99922.44;4945388;28;20138;-61
2023/01/19 19:07:51;;;;;;;21.02;13.57;;;;;;;1.42;80.11;99923.19;4963697;28;20046;-61
2023/01/19 19:10:19;;;;;;;21.67;13.93;;;;;;;1.45;80.42;99929.16;4967214;28;20049;-60
2023/01/19 19:25:43;;;;;;;23.38;13.77;;;;;;;1.44;79.80;99945.63;4971056;28;20049;-63
2023/01/19 19:28:10;;;;;;;19.40;12.48;;;;;;;1.39;80.40;99944.03;4949397;28;20555;-64
2023/01/19 19:51:24;;;;;;;18.63;12.10;;;;;;;1.43;81.08;99969.81;4967139;28;20055;-63
2023/01/19 20:38:05;;;;;;;21.80;14.02;;;;;;;1.47;82.29;100005.16;4965766;28;22035;-62
2023/01/19 20:40:32;;;;;;;19.17;12.77;;;;;;;1.47;82.23;100007.75;4952298;28;20507;-62
2023/01/19 20:43:19;;;;;;;24.08;14.15;;;;;;;1.51;82.47;100011.09;4871820;29;20064;-62
2023/01/19 20:45:46;;;;;;;20.42;12.35;;;;;;;1.56;82.39;100011.78;4874981;29;20071;-61
2023/01/19 20:48:13;;;;;;;17.48;11.90;;;;;;;1.63;82.15;100020.25;4881835;29;20131;-62
2023/01/19 20:50:40;;;;;;;20.40;12.60;;;;;;;1.66;81.96;100014.94;4886040;29;20052;-63
2023/01/19 20:58:21;;;;;;;19.80;12.73;;;;;;;1.63;81.75;100018.50;4868236;29;20146;-64
2023/01/19 21:01:40;;;;;;;17.17;11.65;;;;;;;1.59;82.06;100024.69;4909905;28;20627;-62
2023/01/19 21:05:07;;;;;;;21.25;13.50;;;;;;;1.52;82.06;100031.78;4971269;28;20046;-61
2023/01/19 21:08:28;;;;;;;19.50;11.93;;;;;;;1.41;82.90;100031.28;4965098;28;20137;-63
2023/01/19 21:10:56;;;;;;;18.17;11.90;;;;;;;1.45;82.89;100032.91;4973784;28;20058;-60
2023/01/19 22:21:34;;;;;;;17.30;11.32;;;;;;;1.62;84.98;100117.09;4971118;28;20568;-63
2023/01/19 22:42:28;;;;;;;17.48;10.63;;;;;;;1.74;85.67;100148.72;4974309;28;20057;-60
2023/01/19 22:44:55;;;;;;;17.17;12.45;;;;;;;1.78;85.76;100144.31;4978252;28;20124;-62
2023/01/19 23:17:32;;;;;;;18.20;11.43;;;;;;;1.79;86.76;100161.56;4979584;28;20049;-63
